Fort Severn, Canada
Current Conditions -  °F | °C
As of 7:31 PM on Tuesday 25 Nov 2014 (Local Time) from CYER Reporting Station
Overcast Overcast  
Wind Chill: -37°   Ceiling: 4700
Heat Index: -24°   Visibility: 9mi
Dew Point: -28°   Wind: 17mph
Humidity: 70%   Direction: 280°W
Pressure: 29.94"   Gusts: 25mph
Location:  55.98°N, 87.65°W
Report Text: CYER 260031Z AUTO 28015G22KT 9SM SCT035 OVC047 M24/M28 A2994 RMK SLP139
Loading
Personal Weather Stations






























Interactive Weather Map New forecast layout! Learn more

10-Day Weather Forecast

Advertisements
Track Severe Weather on mobile